<?xml version="1.0" encoding="UTF-8" standalone="no" ?>
<gpx xmlns="http://www.topografix.com/GPX/1/1" xmlns:xsi="http://www.w3.org/2001/XMLSchema-instance" xsi:schemaLocation="http://www.topografix.com/GPX/1/1 http://www.topografix.com/GPX/1/1/gpx.xsd" version="1.1" creator="VisuGPX - https://www.visugpx.com">
  <metadata>
    <name>ARQUES LA SEYNE SUR MER 1497 KM</name>
    <desc><![CDATA[Rando de Arques dans le Pas de Calais jusque La Seyne sur Mer dans le Var, 1497 km]]></desc>
  </metadata>
  <trk>
    <name><![CDATA[34 - CLUNY TRAMAYES 19.5 KM]]></name>
    <extensions>
      <line xmlns="http://www.topografix.com/GPX/gpx_style/0/2">
        <color>880000</color>
        <width>4</width>
      </line>
    </extensions>
    <trkseg>
      <trkpt lat="46.43224" lon="4.66119">
        <ele>239</ele>
        <time>2021-11-15T16:44:36+01:00</time>
      </trkpt>
      <trkpt lat="46.43255" lon="4.66023">
        <ele>240</ele>
        <time>2021-11-15T16:44:41+01:00</time>
      </trkpt>
      <trkpt lat="46.43298" lon="4.65947">
        <ele>241</ele>
        <time>2021-11-15T16:44:46+01:00</time>
      </trkpt>
      <trkpt lat="46.43362" lon="4.65812">
        <ele>245</ele>
        <time>2021-11-15T16:44:51+01:00</time>
      </trkpt>
      <trkpt lat="46.43274" lon="4.65774">
        <ele>252</ele>
        <time>2021-11-15T16:44:56+01:00</time>
      </trkpt>
      <trkpt lat="46.43198" lon="4.65621">
        <ele>267</ele>
        <time>2021-11-15T16:45:01+01:00</time>
      </trkpt>
      <trkpt lat="46.43109" lon="4.65497">
        <ele>278</ele>
        <time>2021-11-15T16:45:06+01:00</time>
      </trkpt>
      <trkpt lat="46.43074" lon="4.65393">
        <ele>279</ele>
        <time>2021-11-15T16:45:11+01:00</time>
      </trkpt>
      <trkpt lat="46.43" lon="4.65355">
        <ele>279</ele>
        <time>2021-11-15T16:45:16+01:00</time>
      </trkpt>
      <trkpt lat="46.42842" lon="4.65227">
        <ele>277</ele>
        <time>2021-11-15T16:45:21+01:00</time>
      </trkpt>
      <trkpt lat="46.42685" lon="4.65057">
        <ele>272</ele>
        <time>2021-11-15T16:45:26+01:00</time>
      </trkpt>
      <trkpt lat="46.42628" lon="4.6477">
        <ele>278</ele>
        <time>2021-11-15T16:45:31+01:00</time>
      </trkpt>
      <trkpt lat="46.4254" lon="4.64463">
        <ele>269</ele>
        <time>2021-11-15T16:45:36+01:00</time>
      </trkpt>
      <trkpt lat="46.42556" lon="4.64172">
        <ele>280</ele>
        <time>2021-11-15T16:45:41+01:00</time>
      </trkpt>
      <trkpt lat="46.42559" lon="4.64002">
        <ele>290</ele>
        <time>2021-11-15T16:45:46+01:00</time>
      </trkpt>
      <trkpt lat="46.42499" lon="4.63881">
        <ele>294</ele>
        <time>2021-11-15T16:45:51+01:00</time>
      </trkpt>
      <trkpt lat="46.42389" lon="4.63785">
        <ele>308</ele>
        <time>2021-11-15T16:45:56+01:00</time>
      </trkpt>
      <trkpt lat="46.42318" lon="4.63733">
        <ele>315</ele>
        <time>2021-11-15T16:46:01+01:00</time>
      </trkpt>
      <trkpt lat="46.42218" lon="4.63639">
        <ele>315</ele>
        <time>2021-11-15T16:46:06+01:00</time>
      </trkpt>
      <trkpt lat="46.42024" lon="4.63269">
        <ele>322</ele>
        <time>2021-11-15T16:46:11+01:00</time>
      </trkpt>
      <trkpt lat="46.41855" lon="4.63224">
        <ele>313</ele>
        <time>2021-11-15T16:46:16+01:00</time>
      </trkpt>
      <trkpt lat="46.41822" lon="4.63117">
        <ele>312</ele>
        <time>2021-11-15T16:46:21+01:00</time>
      </trkpt>
      <trkpt lat="46.41838" lon="4.63017">
        <ele>317</ele>
        <time>2021-11-15T16:46:26+01:00</time>
      </trkpt>
      <trkpt lat="46.41805" lon="4.6284">
        <ele>338</ele>
        <time>2021-11-15T16:46:31+01:00</time>
      </trkpt>
      <trkpt lat="46.41657" lon="4.62536">
        <ele>364</ele>
        <time>2021-11-15T16:46:36+01:00</time>
      </trkpt>
      <trkpt lat="46.41571" lon="4.62463">
        <ele>368</ele>
        <time>2021-11-15T16:46:41+01:00</time>
      </trkpt>
      <trkpt lat="46.41509" lon="4.62384">
        <ele>360</ele>
        <time>2021-11-15T16:46:46+01:00</time>
      </trkpt>
      <trkpt lat="46.41483" lon="4.62318">
        <ele>354</ele>
        <time>2021-11-15T16:46:51+01:00</time>
      </trkpt>
      <trkpt lat="46.41357" lon="4.62349">
        <ele>347</ele>
        <time>2021-11-15T16:46:56+01:00</time>
      </trkpt>
      <trkpt lat="46.41223" lon="4.62328">
        <ele>335</ele>
        <time>2021-11-15T16:47:01+01:00</time>
      </trkpt>
      <trkpt lat="46.41094" lon="4.62384">
        <ele>333</ele>
        <time>2021-11-15T16:47:06+01:00</time>
      </trkpt>
      <trkpt lat="46.41047" lon="4.62435">
        <ele>335</ele>
        <time>2021-11-15T16:47:11+01:00</time>
      </trkpt>
      <trkpt lat="46.40873" lon="4.62418">
        <ele>330</ele>
        <time>2021-11-15T16:47:16+01:00</time>
      </trkpt>
      <trkpt lat="46.40734" lon="4.62477">
        <ele>318</ele>
        <time>2021-11-15T16:47:21+01:00</time>
      </trkpt>
      <trkpt lat="46.40677" lon="4.62522">
        <ele>317</ele>
        <time>2021-11-15T16:47:26+01:00</time>
      </trkpt>
      <trkpt lat="46.40577" lon="4.62567">
        <ele>317</ele>
        <time>2021-11-15T16:47:31+01:00</time>
      </trkpt>
      <trkpt lat="46.40546" lon="4.6264">
        <ele>323</ele>
        <time>2021-11-15T16:47:36+01:00</time>
      </trkpt>
      <trkpt lat="46.40412" lon="4.62664">
        <ele>324</ele>
        <time>2021-11-15T16:47:41+01:00</time>
      </trkpt>
      <trkpt lat="46.40276" lon="4.62595">
        <ele>320</ele>
        <time>2021-11-15T16:47:46+01:00</time>
      </trkpt>
      <trkpt lat="46.40057" lon="4.6266">
        <ele>308</ele>
        <time>2021-11-15T16:47:51+01:00</time>
      </trkpt>
      <trkpt lat="46.39957" lon="4.62615">
        <ele>291</ele>
        <time>2021-11-15T16:47:56+01:00</time>
      </trkpt>
      <trkpt lat="46.39871" lon="4.62557">
        <ele>278</ele>
        <time>2021-11-15T16:48:01+01:00</time>
      </trkpt>
      <trkpt lat="46.39818" lon="4.62601">
        <ele>270</ele>
        <time>2021-11-15T16:48:06+01:00</time>
      </trkpt>
      <trkpt lat="46.39759" lon="4.62681">
        <ele>266</ele>
        <time>2021-11-15T16:48:11+01:00</time>
      </trkpt>
      <trkpt lat="46.39568" lon="4.62321">
        <ele>260</ele>
        <time>2021-11-15T16:48:16+01:00</time>
      </trkpt>
      <trkpt lat="46.39553" lon="4.6211">
        <ele>268</ele>
        <time>2021-11-15T16:48:21+01:00</time>
      </trkpt>
      <trkpt lat="46.39501" lon="4.62031">
        <ele>263</ele>
        <time>2021-11-15T16:48:26+01:00</time>
      </trkpt>
      <trkpt lat="46.39169" lon="4.61806">
        <ele>255</ele>
        <time>2021-11-15T16:48:31+01:00</time>
      </trkpt>
      <trkpt lat="46.391" lon="4.61789">
        <ele>254</ele>
        <time>2021-11-15T16:48:36+01:00</time>
      </trkpt>
      <trkpt lat="46.38964" lon="4.6164">
        <ele>260</ele>
        <time>2021-11-15T16:48:41+01:00</time>
      </trkpt>
      <trkpt lat="46.38823" lon="4.6192">
        <ele>263</ele>
        <time>2021-11-15T16:48:46+01:00</time>
      </trkpt>
      <trkpt lat="46.38785" lon="4.61958">
        <ele>264</ele>
        <time>2021-11-15T16:48:51+01:00</time>
      </trkpt>
      <trkpt lat="46.38726" lon="4.62083">
        <ele>270</ele>
        <time>2021-11-15T16:48:56+01:00</time>
      </trkpt>
      <trkpt lat="46.38678" lon="4.62041">
        <ele>271</ele>
        <time>2021-11-15T16:49:01+01:00</time>
      </trkpt>
      <trkpt lat="46.38649" lon="4.62124">
        <ele>279</ele>
        <time>2021-11-15T16:49:06+01:00</time>
      </trkpt>
      <trkpt lat="46.38718" lon="4.62193">
        <ele>277</ele>
        <time>2021-11-15T16:49:11+01:00</time>
      </trkpt>
      <trkpt lat="46.38904" lon="4.62591">
        <ele>292</ele>
        <time>2021-11-15T16:49:16+01:00</time>
      </trkpt>
      <trkpt lat="46.38873" lon="4.62695">
        <ele>308</ele>
        <time>2021-11-15T16:49:21+01:00</time>
      </trkpt>
      <trkpt lat="46.38854" lon="4.62899">
        <ele>310</ele>
        <time>2021-11-15T16:49:26+01:00</time>
      </trkpt>
      <trkpt lat="46.3878" lon="4.62823">
        <ele>324</ele>
        <time>2021-11-15T16:49:31+01:00</time>
      </trkpt>
      <trkpt lat="46.3868" lon="4.62698">
        <ele>342</ele>
        <time>2021-11-15T16:49:36+01:00</time>
      </trkpt>
      <trkpt lat="46.3852" lon="4.6256">
        <ele>356</ele>
        <time>2021-11-15T16:49:41+01:00</time>
      </trkpt>
      <trkpt lat="46.38272" lon="4.6255">
        <ele>372</ele>
        <time>2021-11-15T16:49:46+01:00</time>
      </trkpt>
      <trkpt lat="46.37981" lon="4.62387">
        <ele>405</ele>
        <time>2021-11-15T16:49:51+01:00</time>
      </trkpt>
      <trkpt lat="46.37917" lon="4.62301">
        <ele>414</ele>
        <time>2021-11-15T16:49:56+01:00</time>
      </trkpt>
      <trkpt lat="46.37929" lon="4.62103">
        <ele>418</ele>
        <time>2021-11-15T16:50:01+01:00</time>
      </trkpt>
      <trkpt lat="46.378" lon="4.61875">
        <ele>437</ele>
        <time>2021-11-15T16:50:06+01:00</time>
      </trkpt>
      <trkpt lat="46.37721" lon="4.61671">
        <ele>449</ele>
        <time>2021-11-15T16:50:11+01:00</time>
      </trkpt>
      <trkpt lat="46.37637" lon="4.61605">
        <ele>446</ele>
        <time>2021-11-15T16:50:16+01:00</time>
      </trkpt>
      <trkpt lat="46.37291" lon="4.61584">
        <ele>455</ele>
        <time>2021-11-15T16:50:21+01:00</time>
      </trkpt>
      <trkpt lat="46.37096" lon="4.61501">
        <ele>459</ele>
        <time>2021-11-15T16:50:26+01:00</time>
      </trkpt>
      <trkpt lat="46.3705" lon="4.61429">
        <ele>454</ele>
        <time>2021-11-15T16:50:31+01:00</time>
      </trkpt>
      <trkpt lat="46.36921" lon="4.61332">
        <ele>448</ele>
        <time>2021-11-15T16:50:36+01:00</time>
      </trkpt>
      <trkpt lat="46.36687" lon="4.60979">
        <ele>451</ele>
        <time>2021-11-15T16:50:41+01:00</time>
      </trkpt>
      <trkpt lat="46.36582" lon="4.60889">
        <ele>479</ele>
        <time>2021-11-15T16:50:46+01:00</time>
      </trkpt>
      <trkpt lat="46.36473" lon="4.60661">
        <ele>488</ele>
        <time>2021-11-15T16:50:51+01:00</time>
      </trkpt>
      <trkpt lat="46.36389" lon="4.60623">
        <ele>488</ele>
        <time>2021-11-15T16:50:56+01:00</time>
      </trkpt>
      <trkpt lat="46.3621" lon="4.60554">
        <ele>483</ele>
        <time>2021-11-15T16:51:01+01:00</time>
      </trkpt>
      <trkpt lat="46.3611" lon="4.60564">
        <ele>483</ele>
        <time>2021-11-15T16:51:06+01:00</time>
      </trkpt>
      <trkpt lat="46.36055" lon="4.60567">
        <ele>487</ele>
        <time>2021-11-15T16:51:11+01:00</time>
      </trkpt>
      <trkpt lat="46.36041" lon="4.60637">
        <ele>489</ele>
        <time>2021-11-15T16:51:16+01:00</time>
      </trkpt>
      <trkpt lat="46.35828" lon="4.60585">
        <ele>522</ele>
        <time>2021-11-15T16:51:21+01:00</time>
      </trkpt>
      <trkpt lat="46.35656" lon="4.60395">
        <ele>540</ele>
        <time>2021-11-15T16:51:26+01:00</time>
      </trkpt>
      <trkpt lat="46.35506" lon="4.60294">
        <ele>549</ele>
        <time>2021-11-15T16:51:31+01:00</time>
      </trkpt>
      <trkpt lat="46.35355" lon="4.60273">
        <ele>556</ele>
        <time>2021-11-15T16:51:36+01:00</time>
      </trkpt>
      <trkpt lat="46.35241" lon="4.60173">
        <ele>559</ele>
        <time>2021-11-15T16:51:41+01:00</time>
      </trkpt>
      <trkpt lat="46.35157" lon="4.60187">
        <ele>564</ele>
        <time>2021-11-15T16:51:46+01:00</time>
      </trkpt>
      <trkpt lat="46.34904" lon="4.60017">
        <ele>591</ele>
        <time>2021-11-15T16:51:51+01:00</time>
      </trkpt>
      <trkpt lat="46.34856" lon="4.59948">
        <ele>587</ele>
        <time>2021-11-15T16:51:56+01:00</time>
      </trkpt>
      <trkpt lat="46.34677" lon="4.59768">
        <ele>578</ele>
        <time>2021-11-15T16:52:01+01:00</time>
      </trkpt>
      <trkpt lat="46.34524" lon="4.59723">
        <ele>570</ele>
        <time>2021-11-15T16:52:06+01:00</time>
      </trkpt>
      <trkpt lat="46.34422" lon="4.59627">
        <ele>567</ele>
        <time>2021-11-15T16:52:11+01:00</time>
      </trkpt>
      <trkpt lat="46.34336" lon="4.59499">
        <ele>566</ele>
        <time>2021-11-15T16:52:16+01:00</time>
      </trkpt>
      <trkpt lat="46.34238" lon="4.59471">
        <ele>558</ele>
        <time>2021-11-15T16:52:21+01:00</time>
      </trkpt>
      <trkpt lat="46.34104" lon="4.59519">
        <ele>553</ele>
        <time>2021-11-15T16:52:26+01:00</time>
      </trkpt>
      <trkpt lat="46.33863" lon="4.59495">
        <ele>555</ele>
        <time>2021-11-15T16:52:31+01:00</time>
      </trkpt>
      <trkpt lat="46.33765" lon="4.59454">
        <ele>556</ele>
        <time>2021-11-15T16:52:36+01:00</time>
      </trkpt>
      <trkpt lat="46.33557" lon="4.59481">
        <ele>564</ele>
        <time>2021-11-15T16:52:41+01:00</time>
      </trkpt>
      <trkpt lat="46.33412" lon="4.59398">
        <ele>561</ele>
        <time>2021-11-15T16:52:46+01:00</time>
      </trkpt>
      <trkpt lat="46.33321" lon="4.59346">
        <ele>555</ele>
        <time>2021-11-15T16:52:51+01:00</time>
      </trkpt>
      <trkpt lat="46.33254" lon="4.59239">
        <ele>552</ele>
        <time>2021-11-15T16:52:56+01:00</time>
      </trkpt>
      <trkpt lat="46.33118" lon="4.5925">
        <ele>555</ele>
        <time>2021-11-15T16:53:01+01:00</time>
      </trkpt>
      <trkpt lat="46.33017" lon="4.59194">
        <ele>556</ele>
        <time>2021-11-15T16:53:06+01:00</time>
      </trkpt>
      <trkpt lat="46.32951" lon="4.59229">
        <ele>556</ele>
        <time>2021-11-15T16:53:11+01:00</time>
      </trkpt>
      <trkpt lat="46.32879" lon="4.59163">
        <ele>554</ele>
        <time>2021-11-15T16:53:16+01:00</time>
      </trkpt>
      <trkpt lat="46.32743" lon="4.59167">
        <ele>549</ele>
        <time>2021-11-15T16:53:21+01:00</time>
      </trkpt>
      <trkpt lat="46.32611" lon="4.59198">
        <ele>545</ele>
        <time>2021-11-15T16:53:26+01:00</time>
      </trkpt>
      <trkpt lat="46.3253" lon="4.5916">
        <ele>550</ele>
        <time>2021-11-15T16:53:31+01:00</time>
      </trkpt>
      <trkpt lat="46.32332" lon="4.59215">
        <ele>553</ele>
        <time>2021-11-15T16:53:36+01:00</time>
      </trkpt>
      <trkpt lat="46.32272" lon="4.59301">
        <ele>546</ele>
        <time>2021-11-15T16:53:41+01:00</time>
      </trkpt>
      <trkpt lat="46.32184" lon="4.59343">
        <ele>542</ele>
        <time>2021-11-15T16:53:46+01:00</time>
      </trkpt>
      <trkpt lat="46.32105" lon="4.59267">
        <ele>555</ele>
        <time>2021-11-15T16:53:51+01:00</time>
      </trkpt>
      <trkpt lat="46.31985" lon="4.5907">
        <ele>551</ele>
        <time>2021-11-15T16:53:56+01:00</time>
      </trkpt>
      <trkpt lat="46.31899" lon="4.59049">
        <ele>534</ele>
        <time>2021-11-15T16:54:01+01:00</time>
      </trkpt>
      <trkpt lat="46.31778" lon="4.59111">
        <ele>530</ele>
        <time>2021-11-15T16:54:06+01:00</time>
      </trkpt>
      <trkpt lat="46.31529" lon="4.59218">
        <ele>528</ele>
        <time>2021-11-15T16:54:11+01:00</time>
      </trkpt>
      <trkpt lat="46.31431" lon="4.59308">
        <ele>532</ele>
        <time>2021-11-15T16:54:16+01:00</time>
      </trkpt>
      <trkpt lat="46.31393" lon="4.59471">
        <ele>527</ele>
        <time>2021-11-15T16:54:21+01:00</time>
      </trkpt>
      <trkpt lat="46.31374" lon="4.59699">
        <ele>513</ele>
        <time>2021-11-15T16:54:26+01:00</time>
      </trkpt>
      <trkpt lat="46.31235" lon="4.5982">
        <ele>504</ele>
        <time>2021-11-15T16:54:31+01:00</time>
      </trkpt>
      <trkpt lat="46.31189" lon="4.59858">
        <ele>499</ele>
        <time>2021-11-15T16:54:36+01:00</time>
      </trkpt>
      <trkpt lat="46.31106" lon="4.59881">
        <ele>495</ele>
        <time>2021-11-15T16:54:41+01:00</time>
      </trkpt>
      <trkpt lat="46.31035" lon="4.59922">
        <ele>485</ele>
        <time>2021-11-15T16:54:46+01:00</time>
      </trkpt>
      <trkpt lat="46.30885" lon="4.59935">
        <ele>477</ele>
        <time>2021-11-15T16:54:51+01:00</time>
      </trkpt>
      <trkpt lat="46.30798" lon="4.59987">
        <ele>470</ele>
        <time>2021-11-15T16:54:56+01:00</time>
      </trkpt>
      <trkpt lat="46.3077" lon="4.60052">
        <ele>466</ele>
        <time>2021-11-15T16:55:01+01:00</time>
      </trkpt>
      <trkpt lat="46.30749" lon="4.60219">
        <ele>466</ele>
        <time>2021-11-15T16:55:06+01:00</time>
      </trkpt>
      <trkpt lat="46.30682" lon="4.60255">
        <ele>468</ele>
        <time>2021-11-15T16:55:11+01:00</time>
      </trkpt>
      <trkpt lat="46.30651" lon="4.60238">
        <ele>468</ele>
        <time>2021-11-15T16:55:16+01:00</time>
      </trkpt>
    </trkseg>
  </trk>
</gpx>